Time;durP1;ratioP1;P1;durP2;ratioP2;P2;SDS_P1;SDS_P2;PMS_P1;PMS_P2;Temp;Humidity;BMP_temperature;BMP_pressure;BME280_temperature;BME280_humidity;BME280_pressure;Samples;Min_cycle;Max_cycle;Signal;HPM_P1;HPM_P2
2021/01/01 00:01:35;;;;;;;8.67;6.57;;;2.60;99.90;;;;;;5087879;28;20410;-82
2021/01/01 00:04:02;;;;;;;7.00;6.30;;;2.70;99.90;;;;;;5090591;28;20373;-80
2021/01/01 00:06:27;;;;;;;8.80;7.10;;;2.60;99.90;;;;;;5055258;28;20376;-81
2021/01/01 00:08:53;;;;;;;11.00;7.07;;;2.70;99.90;;;;;;5090416;28;20701;-81
2021/01/01 00:11:19;;;;;;;10.33;7.73;;;2.80;99.90;;;;;;5089971;28;20191;-80
2021/01/01 00:13:45;;;;;;;11.20;8.03;;;2.80;99.90;;;;;;5089476;28;20227;-79
2021/01/01 00:16:12;;;;;;;11.07;7.83;;;2.70;99.90;;;;;;5089065;28;20254;-79
2021/01/01 00:18:39;;;;;;;12.67;10.27;;;2.90;99.90;;;;;;5089489;28;20159;-79
2021/01/01 00:21:05;;;;;;;12.47;7.63;;;2.90;99.90;;;;;;5089020;28;20437;-81
2021/01/01 00:23:37;;;;;;;17.83;9.20;;;2.90;99.90;;;;;;5051676;28;20452;-81
2021/01/01 00:26:13;;;;;;;17.50;13.30;;;2.90;99.90;;;;;;5088712;28;20402;-79
2021/01/01 00:28:41;;;;;;;14.23;8.40;;;2.80;99.90;;;;;;5088685;28;20432;-80
2021/01/01 00:31:07;;;;;;;16.73;10.00;;;2.80;99.90;;;;;;5089040;28;20462;-80
2021/01/01 00:33:33;;;;;;;14.53;10.97;;;2.80;99.90;;;;;;5070399;28;20398;-80
2021/01/01 00:35:58;;;;;;;26.00;11.80;;;2.90;99.90;;;;;;5071232;28;20156;-80
2021/01/01 00:38:24;;;;;;;16.80;11.47;;;2.90;99.90;;;;;;5089756;28;20160;-80
2021/01/01 00:40:50;;;;;;;18.33;10.63;;;3.00;99.90;;;;;;5071935;28;20168;-80
2021/01/01 00:43:15;;;;;;;19.27;11.10;;;2.90;99.90;;;;;;5089174;28;20156;-80
2021/01/01 00:45:42;;;;;;;13.80;10.90;;;2.80;99.90;;;;;;5089303;28;20166;-81
2021/01/01 00:48:08;;;;;;;24.23;12.87;;;2.80;99.90;;;;;;5052812;28;20473;-81
2021/01/01 00:50:33;;;;;;;17.53;12.00;;;2.80;99.90;;;;;;5088540;28;20188;-80
2021/01/01 00:52:59;;;;;;;18.00;11.30;;;2.90;99.90;;;;;;5088953;28;20913;-82
2021/01/01 00:55:25;;;;;;;15.90;10.47;;;2.90;99.90;;;;;;5070554;28;20152;-81
2021/01/01 00:57:50;;;;;;;15.03;9.93;;;2.90;99.90;;;;;;5087961;28;20223;-80
2021/01/01 01:00:17;;;;;;;13.87;10.87;;;3.00;99.90;;;;;;5070238;28;20181;-82
2021/01/01 01:02:42;;;;;;;13.40;9.83;;;3.00;99.90;;;;;;5088824;28;20167;-80
2021/01/01 01:05:09;;;;;;;23.53;9.83;;;3.10;99.90;;;;;;5070633;28;20394;-82
2021/01/01 01:07:35;;;;;;;14.70;9.67;;;3.20;99.90;;;;;;5088957;28;20168;-81
2021/01/01 01:10:01;;;;;;;20.73;12.37;;;3.10;99.90;;;;;;5088566;28;20453;-81
2021/01/01 01:12:29;;;;;;;15.97;10.87;;;3.00;99.90;;;;;;5088342;28;20190;-82
2021/01/01 01:14:57;;;;;;;15.40;10.73;;;3.10;99.90;;;;;;5088523;28;20167;-81
2021/01/01 01:17:23;;;;;;;16.83;11.53;;;3.10;99.90;;;;;;5088977;28;20839;-82
2021/01/01 01:19:49;;;;;;;16.20;9.13;;;3.20;99.90;;;;;;5089002;28;20195;-81
2021/01/01 01:22:15;;;;;;;13.00;9.40;;;3.30;99.90;;;;;;5089250;28;20156;-82
2021/01/01 01:24:40;;;;;;;14.70;10.13;;;3.00;99.90;;;;;;5088654;28;20160;-82
2021/01/01 01:27:06;;;;;;;14.90;8.23;;;3.10;99.90;;;;;;5089167;28;20187;-81
2021/01/01 01:29:32;;;;;;;11.73;9.47;;;3.10;99.90;;;;;;5090004;28;20596;-82
2021/01/01 01:31:58;;;;;;;13.43;9.37;;;3.00;99.90;;;;;;5090258;28;20302;-81
2021/01/01 01:34:24;;;;;;;15.63;8.27;;;3.10;99.90;;;;;;5089158;28;20159;-82
2021/01/01 01:36:49;;;;;;;13.13;9.90;;;3.10;99.90;;;;;;5090506;28;20195;-82
2021/01/01 01:39:15;;;;;;;13.60;9.67;;;3.00;99.90;;;;;;5090454;28;20215;-81
2021/01/01 01:41:41;;;;;;;10.60;8.43;;;3.10;99.90;;;;;;5090355;28;20375;-82
2021/01/01 01:44:10;;;;;;;11.83;10.23;;;3.20;99.90;;;;;;5090375;28;20167;-82
2021/01/01 01:46:41;;;;;;;16.43;10.90;;;3.20;99.90;;;;;;5090094;28;20223;-81
2021/01/01 01:49:11;;;;;;;12.67;8.77;;;3.10;99.90;;;;;;5091348;28;20481;-82
2021/01/01 01:51:38;;;;;;;17.20;9.90;;;3.00;99.90;;;;;;5072947;28;20420;-82
2021/01/01 01:54:05;;;;;;;15.23;8.30;;;3.00;99.90;;;;;;5076214;28;20378;-81
2021/01/01 01:56:33;;;;;;;17.57;9.30;;;2.90;99.90;;;;;;5097344;28;20453;-81
2021/01/01 01:59:00;;;;;;;16.00;8.73;;;3.00;99.90;;;;;;5091550;28;20382;-82
2021/01/01 02:01:28;;;;;;;13.53;9.17;;;2.90;99.90;;;;;;5091265;28;20405;-82
2021/01/01 02:03:55;;;;;;;18.10;11.10;;;3.00;99.90;;;;;;5091456;28;20380;-82
2021/01/01 02:06:22;;;;;;;12.77;10.47;;;3.00;99.90;;;;;;5073347;28;20357;-82
2021/01/01 02:08:50;;;;;;;14.70;10.43;;;3.00;99.90;;;;;;5091513;28;20356;-82
2021/01/01 02:11:17;;;;;;;12.20;8.50;;;2.90;99.90;;;;;;5094787;28;20419;-80
2021/01/01 02:13:47;;;;;;;11.83;9.63;;;2.80;99.90;;;;;;5079789;28;20421;-79
2021/01/01 02:16:14;;;;;;;15.97;9.60;;;3.00;99.90;;;;;;5096968;28;20448;-79
2021/01/01 02:18:41;;;;;;;15.07;10.00;;;3.20;99.90;;;;;;5097122;28;20471;-80
2021/01/01 02:21:12;;;;;;;15.93;10.70;;;3.40;99.90;;;;;;5097079;28;20423;-80
2021/01/01 02:23:38;;;;;;;17.00;12.50;;;3.30;99.90;;;;;;5096483;28;20395;-80
2021/01/01 02:26:04;;;;;;;11.33;8.63;;;3.40;99.90;;;;;;5096576;28;20450;-80
2021/01/01 02:28:30;;;;;;;12.70;8.93;;;3.40;99.90;;;;;;5096652;28;20148;-80
2021/01/01 02:30:56;;;;;;;15.70;9.70;;;3.30;99.90;;;;;;5096606;28;20390;-80
2021/01/01 02:33:22;;;;;;;14.93;10.33;;;3.20;99.90;;;;;;5079216;28;20373;-80
2021/01/01 02:35:47;;;;;;;15.93;10.77;;;3.10;99.90;;;;;;5096773;28;20219;-79
2021/01/01 02:38:13;;;;;;;11.80;7.60;;;3.20;99.90;;;;;;5093892;28;20388;-82
2021/01/01 02:40:40;;;;;;;12.20;8.20;;;3.20;99.90;;;;;;5090969;28;20197;-82
2021/01/01 02:43:06;;;;;;;12.80;10.10;;;3.10;99.90;;;;;;5091869;28;20159;-82
2021/01/01 02:45:32;;;;;;;8.77;7.77;;;3.20;99.90;;;;;;5091914;28;20373;-82
2021/01/01 02:48:19;;;;;;;11.50;9.03;;;3.20;99.90;;;;;;5074196;28;20482;-82
2021/01/01 02:50:45;;;;;;;9.47;8.07;;;3.00;99.90;;;;;;5097256;28;20160;-80
2021/01/01 02:53:12;;;;;;;13.97;9.57;;;3.10;99.90;;;;;;5097936;28;20428;-80
2021/01/01 02:55:38;;;;;;;14.70;9.20;;;3.20;99.90;;;;;;5095547;28;20410;-80
2021/01/01 02:58:05;;;;;;;12.03;9.57;;;3.20;99.90;;;;;;5085952;28;20398;-80
2021/01/01 03:00:32;;;;;;;14.27;9.80;;;3.30;99.90;;;;;;5086920;28;20432;-82
2021/01/01 03:02:58;;;;;;;13.67;8.87;;;3.40;99.90;;;;;;5071279;28;20401;-82
2021/01/01 03:05:24;;;;;;;10.80;8.47;;;3.40;99.90;;;;;;5089337;28;20369;-82
2021/01/01 03:07:50;;;;;;;13.23;9.20;;;3.30;99.90;;;;;;5089253;28;20524;-82
2021/01/01 03:10:18;;;;;;;13.13;9.43;;;3.40;99.90;;;;;;5088818;28;20371;-82
2021/01/01 03:12:43;;;;;;;10.07;8.57;;;3.40;99.90;;;;;;5088756;28;20442;-82
2021/01/01 03:15:10;;;;;;;12.73;9.17;;;3.30;99.90;;;;;;5088049;28;20424;-82
2021/01/01 03:17:36;;;;;;;14.87;11.20;;;3.30;99.90;;;;;;5088378;28;20160;-82
2021/01/01 03:20:04;;;;;;;12.07;8.73;;;3.30;99.90;;;;;;5087476;28;20496;-82
2021/01/01 03:22:31;;;;;;;13.10;8.23;;;3.30;99.90;;;;;;5088255;28;20383;-82
2021/01/01 03:24:57;;;;;;;22.33;11.03;;;3.10;99.90;;;;;;5087698;28;20421;-81
2021/01/01 03:27:42;;;;;;;13.40;9.97;;;3.00;99.90;;;;;;5087270;28;20373;-81
2021/01/01 03:30:10;;;;;;;9.63;8.63;;;3.00;99.90;;;;;;5046452;28;20439;-82
2021/01/01 03:32:36;;;;;;;9.00;8.10;;;3.10;99.90;;;;;;5047048;28;20430;-82
2021/01/01 03:35:06;;;;;;;12.17;9.80;;;3.10;99.90;;;;;;5046157;28;20414;-82
2021/01/01 03:37:33;;;;;;;16.77;10.30;;;3.20;99.90;;;;;;5047250;28;20367;-81
2021/01/01 03:40:00;;;;;;;13.13;9.00;;;3.00;99.90;;;;;;5047383;28;20408;-82
2021/01/01 03:42:25;;;;;;;21.93;9.87;;;3.00;99.90;;;;;;5047638;28;20438;-82
2021/01/01 03:44:51;;;;;;;13.47;9.57;;;3.10;99.90;;;;;;5049243;28;20416;-81
2021/01/01 03:47:37;;;;;;;11.23;9.00;;;3.30;99.90;;;;;;5047556;28;20232;-82
2021/01/01 03:50:03;;;;;;;11.40;8.70;;;3.20;99.90;;;;;;5009142;28;20190;-82
2021/01/01 03:52:29;;;;;;;14.03;10.50;;;3.30;99.90;;;;;;5008268;28;20459;-81
2021/01/01 03:54:56;;;;;;;14.23;8.93;;;3.20;99.90;;;;;;5008751;28;20401;-82
2021/01/01 03:57:21;;;;;;;15.63;10.17;;;3.20;99.90;;;;;;5007971;28;20490;-82
2021/01/01 03:59:49;;;;;;;10.40;9.43;;;3.30;99.90;;;;;;5011911;28;20384;-82
2021/01/01 04:02:18;;;;;;;12.30;8.47;;;3.30;99.90;;;;;;5035211;28;20184;-82
2021/01/01 04:04:44;;;;;;;17.83;11.00;;;3.30;99.90;;;;;;5051958;28;20382;-82
2021/01/01 04:07:09;;;;;;;12.20;9.23;;;3.30;99.90;;;;;;5049991;28;20873;-82
2021/01/01 04:09:36;;;;;;;12.37;9.27;;;3.30;99.90;;;;;;5046993;28;20196;-81
2021/01/01 04:12:03;;;;;;;15.00;9.50;;;3.30;99.90;;;;;;5047627;28;20424;-82
2021/01/01 04:14:28;;;;;;;18.00;10.90;;;3.40;99.90;;;;;;5048954;28;20161;-81
2021/01/01 04:16:54;;;;;;;16.97;11.07;;;3.60;99.90;;;;;;5047525;28;20408;-81
2021/01/01 04:19:23;;;;;;;12.20;7.83;;;3.40;99.90;;;;;;5047074;28;20172;-81
2021/01/01 04:21:49;;;;;;;13.63;7.87;;;3.50;99.90;;;;;;5083708;28;20449;-81
2021/01/01 04:24:16;;;;;;;11.23;9.97;;;3.40;99.90;;;;;;5087757;28;20813;-82
2021/01/01 04:26:43;;;;;;;12.50;9.20;;;3.50;99.90;;;;;;5091261;28;20397;-82
2021/01/01 04:29:09;;;;;;;16.20;9.30;;;3.40;99.90;;;;;;5092084;28;20401;-82
2021/01/01 04:31:36;;;;;;;18.63;9.80;;;3.70;99.90;;;;;;5074233;28;20761;-81
2021/01/01 04:34:03;;;;;;;20.10;11.70;;;3.60;99.90;;;;;;5092580;28;20163;-82
2021/01/01 04:36:29;;;;;;;10.70;9.20;;;3.60;99.90;;;;;;5071455;28;20414;-82
2021/01/01 04:38:54;;;;;;;12.50;9.00;;;3.70;99.90;;;;;;5086074;28;20386;-82
2021/01/01 04:41:21;;;;;;;10.83;8.57;;;3.50;99.90;;;;;;5095835;28;20162;-80
2021/01/01 04:43:49;;;;;;;18.33;10.60;;;3.60;99.90;;;;;;5098931;28;20187;-80
2021/01/01 04:46:17;;;;;;;17.40;11.20;;;3.70;99.90;;;;;;5097467;28;20412;-80
2021/01/01 04:48:46;;;;;;;11.00;9.17;;;3.90;99.90;;;;;;5057352;28;20456;-80
2021/01/01 04:51:13;;;;;;;18.37;10.50;;;3.90;99.90;;;;;;5086454;28;20412;-80
2021/01/01 04:53:40;;;;;;;15.63;10.13;;;3.70;99.90;;;;;;5086464;28;20902;-79
2021/01/01 04:56:09;;;;;;;9.83;8.83;;;3.60;99.90;;;;;;5086893;28;20368;-80
2021/01/01 04:58:36;;;;;;;8.70;7.70;;;3.70;99.90;;;;;;5086085;28;20411;-81
2021/01/01 05:01:03;;;;;;;15.37;9.43;;;3.90;99.90;;;;;;5085668;28;20444;-81
2021/01/01 05:03:28;;;;;;;11.27;9.13;;;3.90;99.90;;;;;;5095679;28;20419;-81
2021/01/01 05:05:55;;;;;;;10.27;8.80;;;3.80;99.90;;;;;;5095274;28;20446;-81
2021/01/01 05:08:21;;;;;;;14.63;9.30;;;4.00;99.90;;;;;;5090604;28;20217;-81
2021/01/01 05:10:49;;;;;;;10.90;9.80;;;4.10;99.90;;;;;;5070589;28;20476;-81
2021/01/01 05:13:17;;;;;;;15.57;9.57;;;4.20;99.90;;;;;;5089162;28;20399;-81
2021/01/01 05:15:44;;;;;;;14.20;9.80;;;4.20;99.90;;;;;;5089180;28;20485;-81
2021/01/01 05:18:28;;;;;;;17.10;9.47;;;4.10;99.90;;;;;;5087951;28;20457;-81
2021/01/01 05:20:56;;;;;;;14.70;9.10;;;4.00;99.90;;;;;;5087711;28;20428;-79
2021/01/01 05:23:25;;;;;;;10.60;8.60;;;4.00;99.90;;;;;;5087237;28;20394;-81
2021/01/01 05:26:12;;;;;;;11.70;9.07;;;3.80;99.90;;;;;;5088394;28;20436;-80
2021/01/01 05:29:01;;;;;;;11.67;9.80;;;3.90;99.90;;;;;;5070523;28;20372;-81
2021/01/01 05:31:30;;;;;;;12.67;10.17;;;3.90;99.90;;;;;;5054098;28;20450;-81
2021/01/01 05:33:59;;;;;;;12.23;8.70;;;4.10;99.90;;;;;;5089475;28;20401;-81
2021/01/01 05:36:30;;;;;;;9.83;7.80;;;4.30;99.90;;;;;;5090629;28;20420;-81
2021/01/01 05:38:56;;;;;;;15.30;10.00;;;4.40;99.90;;;;;;5091030;28;20436;-81
2021/01/01 05:41:32;;;;;;;10.90;9.27;;;4.30;99.90;;;;;;5091607;28;20433;-81
2021/01/01 05:44:18;;;;;;;17.10;10.37;;;4.30;99.90;;;;;;5091463;28;20375;-82
2021/01/01 05:47:09;;;;;;;12.87;9.80;;;4.20;99.90;;;;;;5090916;28;20615;-81
2021/01/01 05:49:38;;;;;;;11.70;8.37;;;3.80;99.90;;;;;;5096139;28;20408;-80
2021/01/01 05:52:16;;;;;;;10.60;8.93;;;3.80;99.90;;;;;;5098153;28;20468;-80
2021/01/01 05:54:45;;;;;;;10.43;8.33;;;3.80;99.90;;;;;;5065996;28;20413;-79
2021/01/01 05:57:12;;;;;;;9.30;8.07;;;3.60;99.90;;;;;;5093901;28;20414;-81
2021/01/01 05:59:42;;;;;;;14.90;8.83;;;3.60;99.90;;;;;;5085087;28;20417;-81
2021/01/01 06:02:10;;;;;;;12.97;8.83;;;3.70;99.90;;;;;;5082610;28;20479;-80
2021/01/01 06:04:36;;;;;;;11.63;10.23;;;3.50;99.90;;;;;;5084193;28;20376;-79
2021/01/01 06:07:05;;;;;;;14.60;10.17;;;3.50;99.90;;;;;;5083510;28;20825;-80
2021/01/01 06:09:33;;;;;;;15.00;11.53;;;3.70;99.90;;;;;;5065847;28;20382;-80
2021/01/01 06:12:03;;;;;;;14.70;10.17;;;3.70;99.90;;;;;;5067190;28;20437;-79
2021/01/01 06:14:34;;;;;;;15.80;10.33;;;3.70;99.90;;;;;;5096925;28;20416;-80
2021/01/01 06:17:15;;;;;;;11.30;8.07;;;3.60;99.90;;;;;;5097478;28;20473;-80
2021/01/01 06:19:44;;;;;;;13.30;9.97;;;3.60;99.90;;;;;;5078895;28;20460;-80
2021/01/01 06:22:16;;;;;;;10.90;8.63;;;3.60;99.90;;;;;;5095101;28;20389;-80
2021/01/01 06:24:45;;;;;;;15.23;10.10;;;3.50;99.90;;;;;;5080209;28;20372;-80
2021/01/01 06:27:13;;;;;;;12.53;9.20;;;3.40;99.90;;;;;;5081740;28;20440;-80
2021/01/01 06:29:43;;;;;;;21.10;10.03;;;3.30;99.90;;;;;;5081514;28;20399;-80
2021/01/01 06:32:10;;;;;;;16.80;8.83;;;3.30;99.90;;;;;;5080401;28;20445;-80
2021/01/01 06:34:36;;;;;;;9.77;7.80;;;3.30;99.90;;;;;;5047001;28;20500;-79
2021/01/01 06:37:03;;;;;;;12.43;8.23;;;3.30;99.90;;;;;;5041468;28;20439;-80
2021/01/01 06:39:38;;;;;;;13.87;9.40;;;3.20;99.90;;;;;;5043265;28;20506;-81
2021/01/01 06:42:05;;;;;;;12.20;9.43;;;3.20;99.90;;;;;;5043875;28;20403;-80
2021/01/01 06:44:44;;;;;;;14.70;9.30;;;3.20;99.90;;;;;;5043437;28;20490;-79
2021/01/01 06:47:31;;;;;;;10.30;7.57;;;3.20;99.90;;;;;;5041015;28;20455;-80
2021/01/01 06:49:57;;;;;;;13.33;9.40;;;3.30;99.90;;;;;;5043950;28;20806;-79
2021/01/01 06:52:23;;;;;;;12.90;9.50;;;3.30;99.90;;;;;;5043223;28;20447;-80
2021/01/01 06:54:58;;;;;;;11.40;9.33;;;3.20;99.90;;;;;;5010314;28;20180;-79
2021/01/01 06:57:26;;;;;;;11.03;9.00;;;3.40;99.90;;;;;;5026901;28;20783;-81
2021/01/01 06:59:53;;;;;;;10.23;9.00;;;3.40;99.90;;;;;;5044591;28;20436;-79
2021/01/01 07:02:21;;;;;;;10.83;9.63;;;3.40;99.90;;;;;;5043987;28;20958;-79
2021/01/01 07:04:48;;;;;;;12.50;8.60;;;3.40;99.90;;;;;;5042292;28;20400;-79
2021/01/01 07:07:43;;;;;;;9.87;8.57;;;3.60;99.90;;;;;;5052283;28;20391;-79
2021/01/01 07:10:34;;;;;;;15.73;9.70;;;3.50;99.90;;;;;;5086263;28;20451;-81
2021/01/01 07:13:16;;;;;;;16.77;8.70;;;3.50;99.90;;;;;;5084099;28;20480;-81
2021/01/01 07:15:42;;;;;;;14.17;8.50;;;3.50;99.90;;;;;;5082929;28;20384;-80
2021/01/01 07:18:10;;;;;;;16.87;10.70;;;3.50;99.90;;;;;;5084032;28;20851;-80
2021/01/01 07:20:40;;;;;;;16.10;9.37;;;3.40;99.90;;;;;;5082830;28;20212;-80
2021/01/01 07:23:06;;;;;;;13.03;9.23;;;3.40;99.90;;;;;;5084639;28;20376;-81
2021/01/01 07:25:37;;;;;;;11.90;8.50;;;3.40;99.90;;;;;;5085235;28;20417;-80
2021/01/01 07:28:05;;;;;;;11.60;9.77;;;3.40;99.90;;;;;;5085328;28;20393;-80
2021/01/01 07:30:32;;;;;;;13.47;8.73;;;3.60;99.90;;;;;;5086417;28;20858;-81
2021/01/01 07:32:59;;;;;;;13.63;10.37;;;3.70;99.90;;;;;;5086314;28;20416;-81
2021/01/01 07:35:25;;;;;;;9.90;8.47;;;3.60;99.90;;;;;;5089359;28;20368;-80
2021/01/01 07:37:53;;;;;;;13.67;9.53;;;3.80;99.90;;;;;;5089763;28;20389;-80
2021/01/01 07:40:19;;;;;;;13.63;9.17;;;3.80;99.90;;;;;;5090235;28;20367;-81
2021/01/01 07:42:48;;;;;;;9.97;8.83;;;3.90;99.90;;;;;;5089906;28;20391;-82
2021/01/01 07:45:14;;;;;;;16.10;11.60;;;3.70;99.90;;;;;;5089531;28;20398;-84
2021/01/01 07:47:43;;;;;;;18.20;9.30;;;3.60;99.90;;;;;;5097055;28;20447;-83
2021/01/01 07:50:16;;;;;;;15.90;9.33;;;3.80;99.90;;;;;;5095875;28;20895;-83
2021/01/01 07:52:45;;;;;;;13.83;9.43;;;3.60;99.90;;;;;;5094486;28;20759;-83
2021/01/01 07:55:12;;;;;;;13.00;8.43;;;3.60;99.90;;;;;;5073644;28;20364;-80
2021/01/01 07:57:39;;;;;;;13.23;8.80;;;3.80;99.90;;;;;;5084273;28;20369;-83
2021/01/01 08:00:07;;;;;;;18.20;10.60;;;3.70;99.90;;;;;;5086698;28;20368;-81
2021/01/01 08:02:33;;;;;;;12.00;9.80;;;3.70;99.90;;;;;;5061801;28;20886;-80
2021/01/01 08:05:03;;;;;;;17.40;8.90;;;3.70;99.90;;;;;;5063840;28;20870;-82
2021/01/01 08:07:29;;;;;;;15.10;9.00;;;3.70;99.90;;;;;;5051727;28;20469;-81
2021/01/01 08:09:55;;;;;;;11.40;8.10;;;3.70;99.90;;;;;;5074335;28;20770;-81
2021/01/01 08:12:20;;;;;;;12.43;9.50;;;3.50;99.90;;;;;;5086348;28;20195;-80
2021/01/01 08:14:50;;;;;;;11.00;8.50;;;3.70;99.90;;;;;;5057289;28;20160;-81
2021/01/01 08:17:18;;;;;;;14.07;8.97;;;3.50;99.90;;;;;;5094307;28;20167;-81
2021/01/01 08:19:44;;;;;;;7.07;6.03;;;3.50;99.90;;;;;;5094663;28;20410;-81
2021/01/01 08:22:12;;;;;;;10.47;7.90;;;3.30;99.90;;;;;;5073223;28;20391;-81
2021/01/01 08:24:41;;;;;;;18.17;9.73;;;3.40;99.90;;;;;;5075835;28;20368;-81
2021/01/01 08:27:07;;;;;;;10.07;7.80;;;3.40;99.90;;;;;;5092506;28;20373;-80
2021/01/01 08:29:34;;;;;;;14.77;9.17;;;3.40;99.90;;;;;;5089408;28;20421;-81
2021/01/01 08:32:03;;;;;;;11.43;8.23;;;3.50;99.90;;;;;;5091936;28;20429;-80
2021/01/01 08:34:29;;;;;;;10.03;6.90;;;3.40;99.90;;;;;;5085678;28;20372;-80
2021/01/01 08:36:55;;;;;;;15.43;9.20;;;3.30;99.90;;;;;;5090241;28;20390;-80
2021/01/01 08:39:24;;;;;;;11.47;8.57;;;3.30;99.90;;;;;;5071604;28;20159;-80
2021/01/01 08:41:50;;;;;;;12.20;9.00;;;3.40;99.90;;;;;;5047925;28;20164;-83
2021/01/01 08:44:18;;;;;;;12.20;9.10;;;3.50;99.90;;;;;;5090341;28;20397;-83
2021/01/01 08:46:44;;;;;;;12.03;8.63;;;3.60;99.90;;;;;;5091292;28;20422;-81
2021/01/01 08:49:19;;;;;;;12.93;8.53;;;3.50;99.90;;;;;;5074261;28;20422;-83
2021/01/01 08:51:49;;;;;;;13.10;7.80;;;3.40;99.90;;;;;;5090109;28;21003;-81
2021/01/01 08:54:23;;;;;;;15.93;8.57;;;3.50;99.90;;;;;;5037172;28;20429;-80
2021/01/01 08:56:58;;;;;;;16.43;8.50;;;3.60;99.90;;;;;;5072586;28;20419;-79
2021/01/01 08:59:25;;;;;;;11.67;7.23;;;3.60;99.90;;;;;;5069817;28;20398;-81
2021/01/01 09:01:52;;;;;;;13.07;9.63;;;3.60;99.90;;;;;;5090631;28;20405;-81
2021/01/01 09:04:19;;;;;;;10.07;7.73;;;3.70;99.90;;;;;;5091235;28;20394;-81
2021/01/01 09:07:02;;;;;;;13.07;9.37;;;3.70;99.90;;;;;;5090755;28;20469;-81
2021/01/01 09:09:33;;;;;;;13.63;10.10;;;3.90;99.90;;;;;;5090517;28;20894;-80
2021/01/01 09:12:14;;;;;;;11.37;9.70;;;4.00;99.90;;;;;;5089261;28;20419;-79
2021/01/01 09:15:00;;;;;;;17.10;8.43;;;3.80;99.90;;;;;;5089045;28;20469;-81
2021/01/01 09:17:26;;;;;;;14.90;10.40;;;3.80;99.90;;;;;;5089595;28;20365;-81
2021/01/01 09:20:05;;;;;;;14.03;9.93;;;3.80;99.90;;;;;;5087898;28;20396;-82
2021/01/01 09:22:35;;;;;;;17.63;9.33;;;3.80;99.90;;;;;;5088345;28;20716;-82
2021/01/01 09:25:23;;;;;;;12.93;9.73;;;3.70;99.90;;;;;;5055346;28;20420;-81
2021/01/01 09:27:51;;;;;;;11.47;8.57;;;3.90;99.90;;;;;;5084981;28;20712;-82
2021/01/01 09:30:19;;;;;;;14.57;9.70;;;3.80;99.90;;;;;;5067438;28;20398;-80
2021/01/01 09:32:47;;;;;;;18.30;9.07;;;3.80;99.90;;;;;;5067822;28;20416;-81
2021/01/01 09:35:14;;;;;;;13.13;9.33;;;3.90;99.90;;;;;;5067539;28;20401;-82
2021/01/01 09:37:55;;;;;;;15.90;11.30;;;4.10;99.90;;;;;;5083801;28;20394;-82
2021/01/01 09:40:24;;;;;;;13.80;9.30;;;4.10;99.90;;;;;;5042114;28;20418;-81
2021/01/01 09:42:50;;;;;;;17.00;9.47;;;4.00;99.90;;;;;;5045217;28;20382;-82
2021/01/01 09:45:16;;;;;;;20.90;10.30;;;3.90;99.90;;;;;;5044091;28;20414;-82
2021/01/01 09:47:43;;;;;;;15.27;10.67;;;4.20;99.90;;;;;;5044801;28;20465;-82
2021/01/01 09:50:09;;;;;;;14.00;9.30;;;4.40;99.90;;;;;;5044526;28;20487;-80
2021/01/01 09:52:36;;;;;;;16.70;10.50;;;4.60;99.90;;;;;;5030634;28;20429;-80
2021/01/01 09:55:03;;;;;;;9.87;8.17;;;4.40;99.90;;;;;;5048114;28;20386;-82
2021/01/01 09:57:30;;;;;;;12.90;10.33;;;4.40;99.90;;;;;;5044312;28;20387;-82
2021/01/01 09:59:57;;;;;;;13.23;8.17;;;4.20;99.90;;;;;;5045347;28;20374;-82
2021/01/01 10:02:23;;;;;;;14.27;9.30;;;4.20;99.90;;;;;;5029986;28;20415;-82
2021/01/01 10:04:49;;;;;;;13.13;8.97;;;4.10;99.90;;;;;;5045431;28;20507;-81
2021/01/01 10:07:15;;;;;;;12.67;11.33;;;4.10;99.90;;;;;;4969472;28;20393;-82
2021/01/01 10:09:43;;;;;;;14.40;9.70;;;3.90;99.90;;;;;;4983801;28;20441;-81
2021/01/01 10:12:11;;;;;;;12.67;8.27;;;4.10;99.90;;;;;;5018710;28;20550;-81
2021/01/01 10:14:36;;;;;;;13.57;8.37;;;4.00;99.90;;;;;;5008524;28;20410;-82
2021/01/01 10:17:02;;;;;;;10.00;7.90;;;4.10;99.90;;;;;;5022118;28;20401;-81
2021/01/01 10:19:29;;;;;;;11.17;7.43;;;3.80;99.90;;;;;;5023649;28;20189;-81
2021/01/01 10:21:58;;;;;;;15.23;9.57;;;4.00;99.90;;;;;;4991282;28;20177;-81
2021/01/01 10:24:24;;;;;;;13.47;7.90;;;4.10;99.90;;;;;;5007860;28;20386;-81
2021/01/01 10:26:53;;;;;;;12.53;10.00;;;3.80;99.90;;;;;;5027282;28;20863;-81
2021/01/01 10:29:20;;;;;;;12.90;8.17;;;3.80;99.90;;;;;;5023997;28;20412;-81
2021/01/01 10:31:46;;;;;;;10.30;8.77;;;3.70;99.90;;;;;;5014139;28;20415;-82
2021/01/01 10:34:12;;;;;;;14.43;9.10;;;4.00;99.90;;;;;;5036160;28;20450;-82
2021/01/01 10:36:39;;;;;;;16.03;10.40;;;3.90;99.90;;;;;;5027502;28;20196;-82
2021/01/01 10:39:07;;;;;;;14.53;9.97;;;4.00;99.90;;;;;;5009440;28;20428;-82
2021/01/01 10:41:33;;;;;;;9.90;8.97;;;4.30;99.90;;;;;;5025833;28;20382;-82
2021/01/01 10:43:59;;;;;;;12.50;9.53;;;4.40;99.90;;;;;;5040264;28;20398;-83
2021/01/01 10:46:25;;;;;;;14.40;8.70;;;4.30;99.90;;;;;;5029022;28;20400;-82
2021/01/01 10:48:51;;;;;;;13.60;9.40;;;4.50;99.90;;;;;;5027125;28;20651;-83
2021/01/01 10:51:21;;;;;;;13.90;8.90;;;4.30;99.90;;;;;;5029584;28;20216;-82
2021/01/01 10:53:47;;;;;;;12.00;8.90;;;4.50;99.90;;;;;;5013351;28;20325;-81
2021/01/01 10:56:23;;;;;;;12.87;8.60;;;4.60;99.90;;;;;;5045047;28;20394;-82
2021/01/01 10:58:49;;;;;;;7.87;6.57;;;4.30;99.90;;;;;;5042568;28;20165;-82
2021/01/01 11:01:24;;;;;;;13.27;10.00;;;4.50;99.90;;;;;;5028785;28;20559;-81
2021/01/01 11:03:51;;;;;;;13.40;8.20;;;4.20;99.90;;;;;;5045150;28;20456;-82
2021/01/01 11:06:17;;;;;;;12.40;7.83;;;4.30;99.90;;;;;;4953961;28;20931;-80
2021/01/01 11:08:46;;;;;;;14.70;9.17;;;4.60;99.90;;;;;;4986610;28;20393;-82
2021/01/01 11:11:13;;;;;;;13.03;9.40;;;4.60;99.90;;;;;;4990002;28;20412;-80
2021/01/01 11:13:47;;;;;;;17.93;8.83;;;4.60;99.90;;;;;;4987531;28;20376;-81
2021/01/01 12:21:06;;;;;;;15.03;9.30;;;5.10;99.90;;;;;;5048235;28;20421;-81
2021/01/01 12:23:42;;;;;;;14.60;7.77;;;5.20;99.90;;;;;;5072862;28;20356;-81
2021/01/01 12:26:09;;;;;;;12.80;8.07;;;5.10;99.90;;;;;;5090470;28;20425;-82
2021/01/01 12:28:37;;;;;;;9.30;6.20;;;5.20;99.90;;;;;;5073210;28;20353;-81
2021/01/01 12:31:06;;;;;;;10.37;7.97;;;5.10;99.90;;;;;;5090084;28;20378;-81
2021/01/01 12:33:33;;;;;;;12.70;9.10;;;5.00;99.90;;;;;;5058460;28;20364;-80
2021/01/01 12:35:58;;;;;;;11.00;8.00;;;5.00;99.90;;;;;;5072655;28;20459;-80
2021/01/01 12:38:45;;;;;;;13.03;9.10;;;5.00;99.90;;;;;;5088586;28;20384;-82
2021/01/01 12:41:15;;;;;;;11.57;8.30;;;4.70;99.90;;;;;;5029046;28;20292;-80
2021/01/01 12:43:41;;;;;;;11.07;7.90;;;4.70;99.90;;;;;;5029441;28;20855;-80
2021/01/01 12:46:09;;;;;;;11.20;8.43;;;4.90;99.90;;;;;;5026461;28;20378;-83
2021/01/01 12:48:35;;;;;;;11.47;7.83;;;4.60;99.90;;;;;;5024700;28;20620;-81
2021/01/01 12:51:00;;;;;;;10.40;5.73;;;4.90;99.90;;;;;;5010279;28;20405;-80
2021/01/01 12:53:26;;;;;;;7.27;5.70;;;5.00;99.90;;;;;;4996076;28;20348;-82
2021/01/01 12:55:52;;;;;;;6.37;5.77;;;5.20;99.90;;;;;;5010097;28;20221;-81
2021/01/01 12:58:18;;;;;;;6.00;4.80;;;5.20;99.90;;;;;;5027356;28;20191;-82
2021/01/01 13:00:45;;;;;;;7.97;6.20;;;5.10;99.90;;;;;;5020220;28;20157;-77
2021/01/01 13:03:12;;;;;;;9.80;5.23;;;5.30;99.90;;;;;;4989857;28;20230;-83
2021/01/01 13:05:37;;;;;;;5.17;4.70;;;5.30;99.90;;;;;;4973776;28;20829;-82
2021/01/01 13:08:03;;;;;;;5.37;4.33;;;4.70;99.90;;;;;;4988142;28;20421;-82
2021/01/01 13:10:29;;;;;;;6.03;4.97;;;4.60;99.90;;;;;;4971942;28;20198;-81
2021/01/01 13:12:58;;;;;;;6.10;4.23;;;4.60;99.90;;;;;;4986809;28;20429;-82
2021/01/01 13:15:24;;;;;;;8.53;4.50;;;4.50;99.90;;;;;;4977416;28;20191;-80
2021/01/01 13:17:51;;;;;;;5.83;4.93;;;4.40;99.90;;;;;;4963986;29;20390;-81
2021/01/01 13:20:23;;;;;;;8.30;5.73;;;4.60;99.90;;;;;;4966746;29;20435;-78
2021/01/01 13:22:48;;;;;;;5.70;3.87;;;4.80;99.90;;;;;;4968463;29;20478;-78
2021/01/01 13:25:16;;;;;;;5.47;4.97;;;4.60;99.90;;;;;;5011436;28;20414;-79
2021/01/01 13:27:44;;;;;;;6.17;5.57;;;4.80;99.90;;;;;;5036111;28;20197;-80
2021/01/01 13:30:11;;;;;;;4.37;3.90;;;4.70;99.90;;;;;;5025942;28;20405;-83
2021/01/01 13:32:37;;;;;;;9.47;4.63;;;4.80;99.90;;;;;;5013142;28;20435;-79
2021/01/01 13:35:04;;;;;;;7.43;5.00;;;4.90;99.90;;;;;;5058529;28;20444;-79
2021/01/01 13:37:37;;;;;;;8.13;3.90;;;5.10;99.90;;;;;;5012129;28;20234;-79
2021/01/01 13:40:05;;;;;;;4.57;4.13;;;5.30;99.90;;;;;;5012079;28;20796;-79
2021/01/01 13:42:31;;;;;;;6.60;4.20;;;5.30;99.90;;;;;;5044786;28;20868;-79
2021/01/01 13:44:59;;;;;;;6.00;5.30;;;5.40;99.90;;;;;;4983336;28;20387;-79
2021/01/01 13:47:45;;;;;;;7.73;5.00;;;5.40;99.90;;;;;;4967714;28;20457;-77
2021/01/01 13:50:13;;;;;;;11.23;6.00;;;5.40;99.90;;;;;;4981449;28;20392;-77
2021/01/01 13:52:43;;;;;;;5.70;4.20;;;5.50;99.90;;;;;;4961757;29;20425;-78
2021/01/01 13:55:10;;;;;;;7.07;4.10;;;5.40;99.90;;;;;;4977140;29;20362;-77
2021/01/01 13:57:36;;;;;;;6.63;4.10;;;5.50;99.90;;;;;;4976822;29;20372;-78